Time;durP1;ratioP1;P1;durP2;ratioP2;P2;SDS_P1;SDS_P2;PMS_P1;PMS_P2;Temp;Humidity;BMP_temperature;BMP_pressure;BME280_temperature;BME280_humidity;BME280_pressure;Samples;Min_cycle;Max_cycle;Signal;HPM_P1;HPM_P2
2022/11/22 00:00:44;;;;;;;2.27;2.13;;;;;;;10.70;69.56;94094.56;5033115;28;20192;-83
2022/11/22 00:03:10;;;;;;;2.03;1.93;;;;;;;10.67;69.44;94082.91;5033322;28;20204;-78
2022/11/22 00:05:39;;;;;;;2.10;2.00;;;;;;;10.67;69.34;94087.22;5032851;28;20206;-80
2022/11/22 00:08:06;;;;;;;1.87;1.77;;;;;;;10.67;69.20;94085.47;5033476;28;20188;-82
2022/11/22 00:10:33;;;;;;;2.00;1.90;;;;;;;10.70;69.26;94087.69;5015775;28;20198;-80
2022/11/22 00:13:01;;;;;;;2.03;1.93;;;;;;;10.70;69.17;94094.56;5013480;28;20200;-78
2022/11/22 00:15:28;;;;;;;2.27;2.07;;;;;;;10.70;69.05;94105.59;5013411;28;20203;-79
2022/11/22 00:17:55;;;;;;;2.40;2.20;;;;;;;10.71;69.18;94101.31;5014512;28;20663;-82
2022/11/22 00:20:22;;;;;;;2.20;2.10;;;;;;;10.68;69.09;94099.03;5013247;28;20192;-79
2022/11/22 00:22:50;;;;;;;2.60;2.40;;;;;;;10.72;69.23;94108.00;5013952;28;20381;-82
2022/11/22 00:25:17;;;;;;;2.40;2.20;;;;;;;10.73;68.91;94101.94;5013412;28;20232;-81
2022/11/22 00:27:44;;;;;;;2.30;2.10;;;;;;;10.73;69.07;94107.84;5013872;28;20192;-82
2022/11/22 00:30:11;;;;;;;2.67;1.90;;;;;;;10.75;69.09;94102.56;5013838;28;20188;-79
2022/11/22 00:32:38;;;;;;;2.30;2.13;;;;;;;10.75;69.10;94098.28;5012952;28;20188;-81
2022/11/22 00:35:06;;;;;;;2.50;2.30;;;;;;;10.72;68.93;94092.69;5012787;28;20276;-81
2022/11/22 00:37:33;;;;;;;2.40;2.20;;;;;;;10.71;69.04;94081.66;5014537;28;20234;-79
2022/11/22 00:40:04;;;;;;;2.37;2.17;;;;;;;10.78;68.83;94097.16;5032584;28;20710;-78
2022/11/22 00:42:30;;;;;;;2.37;2.17;;;;;;;10.73;69.09;94087.41;5031624;28;20287;-80
2022/11/22 00:44:57;;;;;;;2.70;2.50;;;;;;;10.74;68.79;94088.19;5032820;28;20724;-79
2022/11/22 00:47:24;;;;;;;3.50;2.50;;;;;;;10.74;68.83;94093.31;5039285;28;20198;-82
2022/11/22 00:49:51;;;;;;;2.70;2.50;;;;;;;10.78;68.92;94097.97;5042487;28;20195;-82
2022/11/22 00:52:18;;;;;;;2.60;2.43;;;;;;;10.69;68.90;94078.44;5034543;28;20200;-81
2022/11/22 00:54:46;;;;;;;2.80;2.60;;;;;;;10.61;68.84;94068.16;5032910;28;20199;-79
2022/11/22 00:57:14;;;;;;;2.53;2.33;;;;;;;10.78;68.85;94097.97;5032324;28;20255;-80
2022/11/22 00:59:41;;;;;;;2.63;2.43;;;;;;;10.79;68.58;94093.63;5032956;28;20259;-79
2022/11/22 01:02:08;;;;;;;2.40;2.20;;;;;;;10.78;68.78;94092.03;5025320;28;20219;-77
2022/11/22 01:04:35;;;;;;;2.70;2.50;;;;;;;10.68;69.00;94081.94;5012140;28;20196;-79
2022/11/22 01:07:01;;;;;;;2.63;2.43;;;;;;;10.76;68.99;94097.31;5020498;28;20210;-81
2022/11/22 01:09:28;;;;;;;2.60;2.40;;;;;;;10.75;68.88;94095.72;5031932;28;20635;-80
2022/11/22 01:11:55;;;;;;;2.60;2.40;;;;;;;10.58;68.78;94075.31;5011805;28;20211;-80
2022/11/22 01:14:23;;;;;;;2.80;2.60;;;;;;;10.71;68.85;94088.53;5013549;28;20593;-78
2022/11/22 01:16:50;;;;;;;2.60;2.40;;;;;;;10.75;68.85;94100.84;5031936;28;20215;-79
2022/11/22 01:19:19;;;;;;;2.40;2.27;;;;;;;10.75;68.86;94098.28;5032177;28;20196;-80
2022/11/22 01:21:45;;;;;;;2.83;2.63;;;;;;;10.76;68.78;94096.53;5031350;28;20196;-77
2022/11/22 01:24:12;;;;;;;3.37;2.40;;;;;;;10.64;68.80;94079.84;5031427;28;20303;-77
2022/11/22 01:26:39;;;;;;;2.83;2.63;;;;;;;10.74;68.90;94096.66;5031398;28;20187;-78
2022/11/22 01:29:07;;;;;;;2.63;2.43;;;;;;;10.68;69.08;94092.16;5031258;28;20720;-81
2022/11/22 01:31:35;;;;;;;2.67;2.47;;;;;;;10.69;69.00;94088.66;5031759;28;20762;-78
2022/11/22 01:34:05;;;;;;;2.30;2.20;;;;;;;10.67;68.99;94088.03;5031367;28;20224;-80
2022/11/22 01:36:32;;;;;;;2.60;2.40;;;;;;;10.62;69.05;94074.06;5030195;28;20207;-79
2022/11/22 01:38:59;;;;;;;2.67;2.47;;;;;;;10.58;68.95;94077.88;5031310;28;20200;-80
2022/11/22 01:41:26;;;;;;;2.80;2.60;;;;;;;10.48;68.94;94060.09;5031454;28;20198;-79
2022/11/22 01:43:53;;;;;;;2.50;2.40;;;;;;;10.55;69.27;94079.81;5031498;28;20549;-78
2022/11/22 01:46:30;;;;;;;2.60;2.40;;;;;;;10.42;69.07;94066.63;5032072;28;20200;-77
2022/11/22 01:49:03;;;;;;;2.80;2.60;;;;;;;10.47;69.45;94078.97;5031421;28;20198;-79
2022/11/22 01:51:35;;;;;;;3.10;2.60;;;;;;;10.25;69.32;94050.41;5034673;28;20215;-78
2022/11/22 01:54:07;;;;;;;3.07;2.80;;;;;;;10.40;69.08;94081.31;5043936;28;20195;-80
2022/11/22 01:56:37;;;;;;;2.80;2.60;;;;;;;10.35;69.56;94069.94;5040545;28;20694;-76
2022/11/22 01:59:08;;;;;;;2.70;2.50;;;;;;;10.33;69.29;94076.97;5038776;28;20187;-78
2022/11/22 02:01:36;;;;;;;4.20;2.77;;;;;;;10.28;69.55;94080.78;5031658;28;20194;-78
2022/11/22 02:04:07;;;;;;;3.43;2.47;;;;;;;10.25;69.59;94088.75;5030417;28;20205;-77
2022/11/22 02:06:40;;;;;;;2.93;2.73;;;;;;;10.23;69.31;94092.34;5031124;28;20697;-82
2022/11/22 02:09:11;;;;;;;3.10;2.80;;;;;;;10.19;69.40;94091.06;5030969;28;20200;-79
2022/11/22 02:11:41;;;;;;;2.40;2.30;;;;;;;10.15;69.63;94098.25;5030746;28;20287;-80
2022/11/22 02:14:09;;;;;;;2.63;2.50;;;;;;;10.13;69.58;94092.47;5030719;28;20188;-79
2022/11/22 02:16:38;;;;;;;3.20;2.90;;;;;;;10.10;69.80;94089.41;5030781;28;20409;-80
2022/11/22 02:19:14;;;;;;;2.73;2.53;;;;;;;10.00;69.71;94080.09;5030005;28;20200;-78
2022/11/22 02:21:42;;;;;;;2.80;2.60;;;;;;;10.03;69.60;94089.22;5030729;28;20191;-78
2022/11/22 02:24:16;;;;;;;2.90;2.67;;;;;;;10.08;69.86;94088.75;5030666;28;20231;-78
2022/11/22 02:26:44;;;;;;;2.70;2.50;;;;;;;9.99;69.81;94070.81;5030697;28;20210;-79
2022/11/22 02:29:11;;;;;;;3.00;2.70;;;;;;;10.03;69.71;94081.56;5030417;28;20590;-81
2022/11/22 02:31:42;;;;;;;2.90;2.70;;;;;;;10.06;69.90;94086.38;5031262;28;20184;-81
2022/11/22 02:34:09;;;;;;;2.90;2.70;;;;;;;9.96;69.78;94072.88;5029046;28;20215;-79
2022/11/22 02:36:41;;;;;;;3.77;3.00;;;;;;;10.02;70.11;94085.84;5030257;28;20199;-81
2022/11/22 02:39:10;;;;;;;3.53;3.23;;;;;;;10.00;70.13;94080.09;5030539;28;20241;-79
2022/11/22 02:41:37;;;;;;;2.80;2.60;;;;;;;9.98;70.08;94088.88;5040643;28;20187;-79
2022/11/22 02:44:07;;;;;;;3.07;2.87;;;;;;;9.95;70.07;94082.28;5038055;28;20191;-79
2022/11/22 02:46:34;;;;;;;3.37;2.90;;;;;;;9.91;70.37;94080.97;5027856;28;20196;-78
2022/11/22 02:49:01;;;;;;;3.00;2.80;;;;;;;9.89;70.21;94077.00;5010930;28;20188;-78
2022/11/22 02:51:28;;;;;;;2.80;2.57;;;;;;;9.86;70.25;94078.06;5011088;28;20203;-77
2022/11/22 02:53:55;;;;;;;2.90;2.70;;;;;;;9.70;70.46;94052.41;5010689;28;20196;-79
2022/11/22 02:56:22;;;;;;;3.27;2.97;;;;;;;9.79;70.24;94065.09;5010768;28;20196;-79
2022/11/22 02:58:49;;;;;;;2.90;2.70;;;;;;;9.78;70.25;94076.25;5010414;28;20232;-77
2022/11/22 03:01:17;;;;;;;3.03;2.80;;;;;;;9.74;70.38;94076.69;5010792;28;20203;-80
2022/11/22 03:03:44;;;;;;;3.03;2.73;;;;;;;9.74;70.36;94074.94;5010680;28;20683;-78
2022/11/22 03:06:11;;;;;;;3.90;2.50;;;;;;;9.72;70.32;94071.75;5010373;28;20192;-81
2022/11/22 03:08:38;;;;;;;3.17;2.87;;;;;;;9.68;70.46;94067.09;5010803;28;20200;-79
2022/11/22 03:11:05;;;;;;;3.03;2.83;;;;;;;9.65;70.41;94062.28;5010093;28;20581;-81
2022/11/22 03:13:31;;;;;;;3.30;3.00;;;;;;;9.65;70.51;94062.28;5010733;28;20603;-77
2022/11/22 03:15:58;;;;;;;3.07;2.87;;;;;;;9.63;70.46;94066.72;5010715;28;20193;-78
2022/11/22 03:18:26;;;;;;;2.93;2.73;;;;;;;9.61;70.54;94060.97;5010455;28;20227;-81
2022/11/22 03:20:53;;;;;;;4.27;2.80;;;;;;;9.58;70.76;94074.81;5015844;28;20191;-81
2022/11/22 03:23:20;;;;;;;2.93;2.73;;;;;;;9.54;70.70;94064.13;5030120;28;20191;-79
2022/11/22 03:25:47;;;;;;;3.60;2.80;;;;;;;9.54;70.58;94073.50;5030381;28;20251;-80
2022/11/22 03:28:14;;;;;;;3.30;3.00;;;;;;;9.52;70.83;94066.00;5031133;28;20195;-79
2022/11/22 03:30:41;;;;;;;3.90;3.27;;;;;;;9.51;70.87;94066.16;5030600;28;20682;-79
2022/11/22 03:33:08;;;;;;;3.20;2.93;;;;;;;9.48;70.40;94066.44;5030677;28;20187;-80
2022/11/22 03:35:36;;;;;;;3.43;3.10;;;;;;;9.30;70.64;94038.38;5030482;28;20195;-79
2022/11/22 03:38:03;;;;;;;3.00;2.80;;;;;;;9.42;70.86;94062.72;5029292;28;20223;-78
2022/11/22 03:40:30;;;;;;;3.33;2.80;;;;;;;9.42;70.88;94059.38;5027914;28;20612;-78
2022/11/22 03:43:00;;;;;;;2.90;2.70;;;;;;;9.38;70.74;94058.88;5029750;28;20183;-79
2022/11/22 03:45:27;;;;;;;3.23;3.00;;;;;;;9.36;70.96;94060.75;5029596;28;20211;-78
2022/11/22 03:47:55;;;;;;;3.10;2.80;;;;;;;9.33;70.88;94063.59;5029393;28;20199;-81
2022/11/22 03:50:22;;;;;;;3.53;3.10;;;;;;;9.30;70.93;94062.13;5031493;28;20191;-77
2022/11/22 03:52:50;;;;;;;3.30;3.10;;;;;;;9.25;70.99;94058.44;5030311;28;20199;-81
2022/11/22 03:55:17;;;;;;;3.20;2.90;;;;;;;9.28;70.97;94065.75;5029792;28;20196;-80
2022/11/22 03:57:44;;;;;;;3.30;3.00;;;;;;;9.22;71.14;94067.16;5029838;28;20218;-79
2022/11/22 04:00:12;;;;;;;3.77;3.37;;;;;;;9.25;71.24;94071.97;5012922;28;20196;-81
2022/11/22 04:02:39;;;;;;;5.20;3.57;;;;;;;9.21;71.25;94069.88;5009940;28;20208;-79
2022/11/22 04:05:06;;;;;;;3.50;3.20;;;;;;;9.20;71.11;94071.63;5013051;28;20196;-81
2022/11/22 04:07:33;;;;;;;3.77;3.37;;;;;;;9.20;71.30;94084.38;5029461;28;20199;-80
2022/11/22 04:10:01;;;;;;;4.33;3.63;;;;;;;9.18;71.00;94080.34;5029465;28;20211;-78
2022/11/22 04:12:29;;;;;;;3.60;3.30;;;;;;;9.16;71.30;94083.06;5029231;28;20187;-79
2022/11/22 04:15:07;;;;;;;6.23;3.87;;;;;;;9.15;71.10;94089.06;5029010;28;20227;-79
2022/11/22 04:17:43;;;;;;;3.50;3.20;;;;;;;9.12;71.14;94097.03;5029602;28;20219;-79
2022/11/22 04:22:58;;;;;;;5.53;3.30;;;;;;;8.97;71.37;94075.50;5031966;28;20199;-81
2022/11/22 04:25:27;;;;;;;4.07;3.67;;;;;;;8.98;71.27;94083.03;5032630;28;20224;-81
2022/11/22 04:27:54;;;;;;;5.80;3.43;;;;;;;8.95;71.18;94083.31;5032175;28;20184;-79
2022/11/22 04:32:44;;;;;;;5.07;3.70;;;;;;;9.03;71.33;94098.69;5032964;28;20195;-79
2022/11/22 04:33:07;;;;;;;4.03;3.63;;;;;;;9.00;71.20;94098.97;5032307;28;20200;-78
2022/11/22 04:35:34;;;;;;;7.23;3.63;;;;;;;8.97;71.17;94095.91;5041745;28;20206;-78
2022/11/22 04:38:01;;;;;;;4.97;3.73;;;;;;;9.01;71.16;94112.53;5041819;28;20224;-80
2022/11/22 04:40:29;;;;;;;3.97;3.53;;;;;;;8.96;71.58;94104.50;5034188;28;20184;-81
2022/11/22 04:45:41;;;;;;;4.30;3.40;;;;;;;8.96;71.41;94107.06;5013125;28;20778;-80
2022/11/22 04:48:09;;;;;;;4.47;3.83;;;;;;;8.95;71.58;94116.47;5012289;28;20195;-79
2022/11/22 04:53:20;;;;;;;5.63;3.67;;;;;;;8.93;71.50;94123.44;5012586;28;20254;-79
2022/11/22 04:55:48;;;;;;;3.77;3.47;;;;;;;8.91;71.56;94127.88;5014380;28;20184;-80
2022/11/22 04:58:25;;;;;;;3.80;3.50;;;;;;;8.91;71.37;94127.88;5031832;28;20227;-80
2022/11/22 05:00:52;;;;;;;4.30;4.00;;;;;;;8.89;71.54;94127.19;5032162;28;20582;-80
2022/11/22 05:03:19;;;;;;;3.97;3.50;;;;;;;8.81;71.50;94127.13;5032381;28;20345;-81
2022/11/22 05:05:46;;;;;;;6.97;4.03;;;;;;;8.86;71.63;94135.16;5032282;28;20203;-81
2022/11/22 05:08:13;;;;;;;3.93;3.63;;;;;;;8.87;71.41;94146.94;5031687;28;20200;-79
2022/11/22 05:10:59;;;;;;;5.00;4.20;;;;;;;8.86;71.55;94137.69;5031689;28;20566;-78
2022/11/22 05:13:29;;;;;;;5.17;3.83;;;;;;;8.84;71.63;94131.13;5031974;28;20600;-78
2022/11/22 05:15:57;;;;;;;4.00;3.63;;;;;;;8.83;71.86;94132.09;5032199;28;20188;-80
2022/11/22 05:18:25;;;;;;;3.70;3.40;;;;;;;8.85;71.56;94141.22;5032134;28;20235;-79
2022/11/22 05:20:54;;;;;;;4.40;3.67;;;;;;;8.83;71.66;94142.28;5029961;28;20200;-78
2022/11/22 05:26:08;;;;;;;4.73;4.03;;;;;;;8.82;71.58;94146.56;5027512;28;20277;-79
2022/11/22 05:28:38;;;;;;;6.03;4.17;;;;;;;8.82;71.84;94135.56;5031408;28;20195;-81
2022/11/22 05:31:09;;;;;;;5.40;4.90;;;;;;;8.81;71.58;94139.88;5028416;28;20241;-81
2022/11/22 05:33:40;;;;;;;7.00;4.33;;;;;;;8.83;71.75;94129.53;5032481;28;20647;-79
2022/11/22 05:36:07;;;;;;;6.33;4.47;;;;;;;8.83;71.81;94137.97;5037930;28;20180;-82
2022/11/22 05:38:36;;;;;;;8.63;5.33;;;;;;;8.79;71.75;94123.91;5036098;28;20224;-80
2022/11/22 05:41:03;;;;;;;5.17;4.67;;;;;;;8.61;71.92;94100.09;5033833;28;20241;-82
2022/11/22 05:43:31;;;;;;;7.67;5.57;;;;;;;8.85;71.91;94138.66;5036288;28;20191;-81
2022/11/22 05:46:07;;;;;;;8.17;5.37;;;;;;;8.86;71.62;94142.81;5044417;28;20188;-81
2022/11/22 05:48:34;;;;;;;7.90;6.07;;;;;;;8.87;71.74;94141.06;5039606;28;20219;-80
2022/11/22 05:51:04;;;;;;;7.93;6.17;;;;;;;8.90;71.81;94141.59;5025066;28;20181;-82
2022/11/22 05:53:30;;;;;;;7.80;6.27;;;;;;;8.92;71.68;94143.97;5028990;28;20254;-82
2022/11/22 05:56:03;;;;;;;8.57;6.47;;;;;;;8.94;71.41;94142.91;5036731;28;20184;-80
2022/11/22 05:58:30;;;;;;;9.80;7.30;;;;;;;8.97;71.61;94139.25;5031579;28;20225;-81
2022/11/22 06:01:01;;;;;;;12.37;7.03;;;;;;;8.96;71.55;94124.91;5031885;28;20638;-82
2022/11/22 06:03:30;;;;;;;10.00;8.17;;;;;;;9.05;71.58;94136.81;5027525;28;20648;-80
2022/11/22 06:05:57;;;;;;;9.43;6.73;;;;;;;9.05;71.19;94129.94;5012189;28;20656;-80
2022/11/22 06:08:24;;;;;;;8.70;7.70;;;;;;;9.12;71.30;94137.84;5012079;28;20192;-82
2022/11/22 06:10:50;;;;;;;10.27;7.93;;;;;;;9.29;71.25;94139.63;5012616;28;20188;-83
2022/11/22 06:13:17;;;;;;;10.87;9.00;;;;;;;9.50;70.91;94147.03;5012331;28;20239;-82
2022/11/22 06:15:44;;;;;;;10.53;8.17;;;;;;;9.79;71.12;94161.31;5027382;28;20199;-83
2022/11/22 06:18:11;;;;;;;10.50;8.30;;;;;;;10.11;71.91;94158.25;5028254;28;20601;-80
2022/11/22 06:20:39;;;;;;;9.37;7.13;;;;;;;10.59;76.58;94163.88;5029232;28;20194;-80
2022/11/22 06:23:06;;;;;;;7.60;6.40;;;;;;;11.08;81.40;94157.25;5028241;28;20219;-81
2022/11/22 06:25:33;;;;;;;8.73;7.43;;;;;;;11.59;82.65;94152.94;5027488;28;20216;-80
2022/11/22 06:28:00;;;;;;;8.83;7.00;;;;;;;12.14;82.41;94146.44;5012291;28;20208;-82
2022/11/22 06:30:27;;;;;;;10.13;8.27;;;;;;;12.70;81.82;94140.44;5023138;28;20187;-81
2022/11/22 06:32:53;;;;;;;8.50;7.03;;;;;;;13.27;80.21;94145.41;5030592;28;20195;-81
2022/11/22 06:35:20;;;;;;;8.77;7.87;;;;;;;13.79;78.33;94131.97;5020849;28;20188;-80
2022/11/22 06:37:50;;;;;;;10.60;8.67;;;;;;;14.29;76.49;94130.63;5020853;28;20199;-81
2022/11/22 06:40:17;;;;;;;8.60;7.70;;;;;;;14.86;74.85;94125.91;5030123;28;20196;-80
2022/11/22 06:42:44;;;;;;;8.40;7.60;;;;;;;15.41;73.32;94146.00;5025260;28;20193;-79
2022/11/22 06:45:12;;;;;;;10.10;7.77;;;;;;;15.66;72.33;94156.84;5029020;28;20223;-80
2022/11/22 06:47:39;;;;;;;11.17;8.10;;;;;;;16.06;70.67;94172.69;5029003;28;20214;-79
2022/11/22 06:50:06;;;;;;;9.97;7.97;;;;;;;16.44;68.55;94170.66;5028730;28;20196;-80
2022/11/22 06:52:33;;;;;;;9.00;7.60;;;;;;;16.92;67.14;94167.47;5030035;28;20187;-79
2022/11/22 06:55:01;;;;;;;8.13;6.97;;;;;;;17.36;65.84;94163.72;5029952;28;20203;-79
2022/11/22 06:57:28;;;;;;;8.23;7.40;;;;;;;17.82;64.75;94163.13;5030243;28;20192;-78
2022/11/22 06:59:55;;;;;;;7.97;7.17;;;;;;;18.25;63.39;94166.19;5030850;28;20216;-80
2022/11/22 07:02:22;;;;;;;8.23;6.73;;;;;;;18.67;62.13;94162.41;5038071;28;20180;-81
2022/11/22 07:04:49;;;;;;;7.50;6.53;;;;;;;19.11;60.97;94165.38;5042527;28;20203;-80
2022/11/22 07:07:16;;;;;;;8.27;7.27;;;;;;;19.52;60.06;94173.63;5046209;28;20205;-79
2022/11/22 07:09:42;;;;;;;7.07;6.30;;;;;;;19.89;58.79;94176.47;5033789;28;20294;-80
2022/11/22 07:12:11;;;;;;;7.50;6.13;;;;;;;20.24;58.04;94163.09;5031831;28;20198;-80
2022/11/22 07:14:38;;;;;;;7.20;5.87;;;;;;;20.59;56.92;94162.69;5032935;28;20192;-80
2022/11/22 07:17:04;;;;;;;5.67;5.10;;;;;;;20.89;55.84;94171.41;5032244;28;20207;-80
2022/11/22 07:19:32;;;;;;;5.77;5.17;;;;;;;21.19;54.99;94160.31;5030543;28;20234;-80
2022/11/22 07:21:58;;;;;;;6.27;4.70;;;;;;;21.39;54.46;94144.56;5024689;28;20725;-80
2022/11/22 07:24:25;;;;;;;5.53;4.47;;;;;;;21.74;53.33;94160.34;5030757;28;20617;-80
2022/11/22 07:26:52;;;;;;;4.80;4.30;;;;;;;21.83;53.21;94147.81;5033142;28;20203;-79
2022/11/22 07:29:20;;;;;;;5.88;3.67;;;;;;;22.03;52.67;94162.16;5029878;28;20192;-79
2022/11/22 07:31:48;;;;;;;8.82;4.30;;;;;;;22.03;52.71;94148.34;5032297;28;20229;-81
2022/11/22 07:34:15;;;;;;;5.13;4.53;;;;;;;21.84;52.44;94155.38;5028683;28;20199;-81
2022/11/22 07:36:42;;;;;;;4.40;4.00;;;;;;;21.59;52.00;94149.50;5029324;28;20199;-80
2022/11/22 07:39:09;;;;;;;4.70;4.30;;;;;;;21.29;52.06;94134.63;5029886;28;20223;-81
2022/11/22 07:41:36;;;;;;;5.10;4.60;;;;;;;21.01;51.94;94135.13;5030884;28;20195;-81
2022/11/22 07:44:02;;;;;;;4.38;4.03;;;;;;;20.63;51.98;94138.66;5029661;28;20196;-81
2022/11/22 07:46:32;;;;;;;4.83;4.20;;;;;;;20.22;51.82;94139.16;5028294;28;20191;-81
2022/11/22 07:49:00;;;;;;;4.90;4.50;;;;;;;19.79;52.15;94132.03;5030235;28;20191;-80
2022/11/22 07:51:27;;;;;;;6.03;4.70;;;;;;;19.37;52.08;94135.97;5029201;28;20659;-80
2022/11/22 07:53:54;;;;;;;5.23;4.77;;;;;;;19.11;52.48;94160.19;5032389;28;20290;-80
2022/11/22 07:56:21;;;;;;;4.67;3.93;;;;;;;18.84;52.46;94162.03;5034130;28;20199;-82
2022/11/22 07:58:48;;;;;;;5.33;4.37;;;;;;;18.60;52.27;94158.22;5032003;28;20994;-79
2022/11/22 08:01:17;;;;;;;10.73;4.13;;;;;;;18.35;52.61;94155.44;5031963;28;20254;-80
2022/11/22 08:03:46;;;;;;;4.67;4.10;;;;;;;18.22;52.58;94149.28;5033133;28;20254;-80
2022/11/22 08:06:13;;;;;;;5.13;4.47;;;;;;;17.99;52.74;94134.09;5032914;28;20188;-81
2022/11/22 08:08:40;;;;;;;4.77;4.03;;;;;;;17.88;52.87;94142.47;5032649;28;20196;-81
2022/11/22 08:11:08;;;;;;;4.87;4.33;;;;;;;17.75;52.86;94140.63;5034894;28;20200;-81
2022/11/22 08:13:35;;;;;;;4.73;4.03;;;;;;;17.54;52.89;94130.41;5030723;28;20184;-82
2022/11/22 08:16:04;;;;;;;6.93;4.83;;;;;;;17.37;52.97;94126.56;5032475;28;20192;-81
2022/11/22 08:18:31;;;;;;;4.87;4.37;;;;;;;17.17;52.95;94134.22;5028031;28;20204;-82
2022/11/22 08:21:10;;;;;;;4.43;4.03;;;;;;;16.96;53.01;94125.56;5032072;28;20204;-79
2022/11/22 08:23:38;;;;;;;4.73;4.33;;;;;;;16.75;53.21;94116.13;5038547;28;20187;-79
2022/11/22 08:26:06;;;;;;;5.23;4.73;;;;;;;16.75;53.17;94120.47;5027369;28;20236;-81
2022/11/22 08:28:33;;;;;;;3.00;2.50;;;;;;;16.88;82.58;94107.66;5017308;28;20181;-80
2022/11/22 08:31:01;;;;;;;3.63;2.70;;;;;;;17.26;81.95;94120.94;5012690;28;20192;-81
2022/11/22 08:33:30;;;;;;;3.13;2.83;;;;;;;17.69;80.44;94112.13;5012343;28;20616;-82
2022/11/22 08:35:57;;;;;;;4.13;3.70;;;;;;;18.02;76.88;94120.78;5012270;28;20219;-80
2022/11/22 08:38:25;;;;;;;4.10;3.80;;;;;;;17.78;72.93;94067.81;5009762;28;20227;-79
2022/11/22 08:40:52;;;;;;;4.40;4.00;;;;;;;18.04;70.54;94105.84;5008662;28;20238;-80
2022/11/22 08:43:20;;;;;;;5.07;3.90;;;;;;;17.90;68.56;94091.31;5007295;28;20188;-78
2022/11/22 08:45:48;;;;;;;5.87;4.13;;;;;;;17.84;67.36;94097.28;5012678;28;20663;-78
2022/11/22 08:48:15;;;;;;;5.63;4.67;;;;;;;17.59;65.79;94070.34;5012392;28;20703;-80
2022/11/22 08:50:50;;;;;;;5.60;4.87;;;;;;;17.30;63.97;94047.19;5011151;28;20202;-79
2022/11/22 08:53:23;;;;;;;4.63;4.23;;;;;;;17.42;63.47;94083.63;5012340;28;20275;-82
2022/11/22 08:55:52;;;;;;;5.13;4.63;;;;;;;17.18;62.86;94066.03;5012104;28;20691;-79
2022/11/22 08:58:19;;;;;;;6.17;4.83;;;;;;;17.17;62.05;94085.13;5009921;28;20207;-80
2022/11/22 09:00:45;;;;;;;5.87;5.37;;;;;;;17.05;61.17;94079.69;5010499;28;20188;-84
2022/11/22 09:03:12;;;;;;;5.57;5.07;;;;;;;16.90;60.44;94081.63;5011838;28;20189;-80
2022/11/22 09:05:39;;;;;;;5.43;4.93;;;;;;;16.84;59.96;94087.53;5008643;28;20200;-79
2022/11/22 09:08:06;;;;;;;5.87;5.27;;;;;;;16.70;59.42;94071.16;5011624;28;20628;-79
2022/11/22 09:10:33;;;;;;;6.13;5.23;;;;;;;16.24;58.91;94004.59;5009928;28;20238;-79
2022/11/22 09:13:04;;;;;;;5.83;5.23;;;;;;;16.61;58.53;94080.03;5011570;28;20200;-79
2022/11/22 09:15:31;;;;;;;5.90;5.27;;;;;;;16.60;58.30;94079.25;5013224;28;20578;-78
2022/11/22 09:18:03;;;;;;;5.40;4.80;;;;;;;16.57;57.82;94077.03;5012073;28;20200;-80
2022/11/22 09:20:30;;;;;;;6.87;4.73;;;;;;;16.46;57.71;94069.84;5012371;28;20224;-80
2022/11/22 09:22:57;;;;;;;5.63;4.93;;;;;;;16.48;57.48;94076.38;5012824;28;20196;-79
2022/11/22 09:25:24;;;;;;;5.10;4.60;;;;;;;16.45;57.29;94076.78;5012283;28;20239;-79
2022/11/22 09:27:50;;;;;;;5.33;4.80;;;;;;;16.40;57.13;94076.53;5014186;28;20193;-80
2022/11/22 09:30:20;;;;;;;6.43;4.97;;;;;;;16.38;56.90;94063.03;5015414;28;20192;-79
2022/11/22 09:32:47;;;;;;;5.67;5.10;;;;;;;16.36;56.89;94061.63;5016053;28;20193;-78
2022/11/22 09:35:16;;;;;;;6.83;5.80;;;;;;;16.37;56.68;94063.22;5016604;28;20185;-79
2022/11/22 09:37:42;;;;;;;8.07;5.70;;;;;;;16.35;56.62;94063.41;5016545;28;20196;-79
2022/11/22 09:40:10;;;;;;;7.50;5.93;;;;;;;16.34;56.62;94061.81;5014170;28;20231;-79
2022/11/22 09:42:55;;;;;;;7.73;5.93;;;;;;;16.34;56.49;94045.53;5014937;28;20196;-79
2022/11/22 09:45:51;;;;;;;6.30;5.70;;;;;;;16.40;56.28;94053.31;5014479;28;20197;-78
2022/11/22 09:48:30;;;;;;;7.20;6.00;;;;;;;16.38;56.15;94039.81;5011615;28;20188;-79
2022/11/22 09:51:02;;;;;;;6.87;6.17;;;;;;;16.39;56.08;94053.50;5009921;28;20603;-80
2022/11/22 09:53:38;;;;;;;7.23;5.93;;;;;;;16.28;56.23;94037.56;5009736;28;20229;-79
2022/11/22 09:56:11;;;;;;;8.57;5.80;;;;;;;16.29;56.10;94043.53;5010542;28;20189;-79
2022/11/22 09:58:43;;;;;;;6.50;5.90;;;;;;;16.28;56.23;94037.56;5009310;28;20581;-80
2022/11/22 10:01:16;;;;;;;8.83;5.57;;;;;;;16.16;56.14;94025.38;5011222;28;20196;-81
2022/11/22 10:03:47;;;;;;;7.23;6.07;;;;;;;16.17;55.89;94032.91;5011492;28;20200;-80
2022/11/22 10:06:22;;;;;;;10.07;6.10;;;;;;;16.22;55.89;94040.88;5010342;28;20207;-81
2022/11/22 10:08:59;;;;;;;6.33;5.63;;;;;;;16.22;55.77;94037.50;5006101;28;20663;-80
2022/11/22 10:11:35;;;;;;;6.93;5.33;;;;;;;16.28;55.54;94041.94;5010570;28;20204;-81
2022/11/22 10:14:10;;;;;;;5.87;5.27;;;;;;;16.31;55.62;94023.47;5010560;28;20666;-79
2022/11/22 10:16:42;;;;;;;5.73;5.13;;;;;;;16.28;55.43;94010.97;5010116;28;20548;-80
2022/11/22 10:19:15;;;;;;;5.90;5.30;;;;;;;16.38;55.42;94013.22;5009742;28;20228;-79
2022/11/22 10:21:45;;;;;;;6.37;5.70;;;;;;;16.35;55.27;93996.31;5012044;28;20211;-81
2022/11/22 10:24:16;;;;;;;5.80;5.10;;;;;;;16.47;55.13;94006.91;5011853;28;20247;-82
2022/11/22 10:26:45;;;;;;;7.73;5.40;;;;;;;16.39;54.96;93979.47;5015649;28;20196;-81
2022/11/22 10:29:28;;;;;;;7.10;5.43;;;;;;;16.61;54.94;93987.09;5012238;28;20281;-80
2022/11/22 10:32:02;;;;;;;5.60;5.03;;;;;;;16.66;54.59;93988.13;5019921;28;20196;-79
2022/11/22 10:34:41;;;;;;;7.23;5.23;;;;;;;16.72;54.50;93994.31;5015184;28;20737;-80
2022/11/22 10:37:20;;;;;;;5.70;5.17;;;;;;;16.77;54.32;93974.69;5027694;28;20624;-79
2022/11/22 10:40:00;;;;;;;8.30;5.73;;;;;;;16.77;54.25;93974.69;5012698;28;20230;-80
2022/11/22 10:42:44;;;;;;;5.40;4.90;;;;;;;16.88;53.98;93991.44;5021135;28;20689;-80
2022/11/22 10:45:17;;;;;;;7.90;5.40;;;;;;;16.71;54.08;93962.53;5010413;28;20188;-81
2022/11/22 10:47:56;;;;;;;6.00;5.40;;;;;;;16.74;54.07;93964.75;5009834;28;20283;-79
2022/11/22 10:50:29;;;;;;;5.57;5.07;;;;;;;16.69;54.16;93964.50;5009972;28;20200;-81
2022/11/22 10:53:05;;;;;;;8.60;5.47;;;;;;;16.56;54.34;93952.34;5007024;28;20186;-81
2022/11/22 10:55:42;;;;;;;5.07;4.60;;;;;;;16.48;54.48;93946.53;5023120;28;20195;-81
2022/11/22 10:58:20;;;;;;;9.63;5.27;;;;;;;16.40;54.48;93950.06;5017215;28;20180;-80
2022/11/22 11:00:51;;;;;;;5.67;4.87;;;;;;;16.30;54.71;93947.06;5009428;28;20230;-79
2022/11/22 11:03:30;;;;;;;6.60;5.20;;;;;;;16.33;54.72;93966.53;5021845;28;20230;-81
2022/11/22 11:06:04;;;;;;;5.73;5.23;;;;;;;16.19;55.09;93952.75;5020155;28;20730;-81
2022/11/22 11:08:37;;;;;;;5.60;4.83;;;;;;;16.16;55.13;93966.84;5013009;28;20666;-80
2022/11/22 11:11:05;;;;;;;6.80;5.27;;;;;;;16.05;55.33;93942.34;5012441;28;20586;-80
2022/11/22 11:13:34;;;;;;;4.73;4.30;;;;;;;15.97;55.42;93954.59;5009245;28;20395;-78
2022/11/22 11:16:07;;;;;;;6.20;5.57;;;;;;;15.89;55.61;93941.84;5013418;28;20660;-79
2022/11/22 11:18:42;;;;;;;5.57;4.97;;;;;;;15.78;55.59;93949.13;5008994;28;20176;-81
2022/11/22 11:21:12;;;;;;;7.37;5.40;;;;;;;15.75;55.65;93952.06;5008861;28;20278;-81
2022/11/22 11:23:39;;;;;;;6.57;5.47;;;;;;;15.69;55.90;93960.56;5009370;28;20184;-81
2022/11/22 11:26:22;;;;;;;5.87;5.10;;;;;;;15.64;55.90;93959.50;5008782;28;20228;-80
2022/11/22 11:28:49;;;;;;;7.27;5.30;;;;;;;15.59;56.04;93942.03;5012758;28;20192;-80
2022/11/22 11:31:17;;;;;;;8.70;5.20;;;;;;;15.37;56.11;93925.81;5013031;28;20192;-80
2022/11/22 11:33:47;;;;;;;6.50;4.80;;;;;;;15.49;56.12;93937.19;5013245;28;20250;-79
2022/11/22 11:36:18;;;;;;;4.90;4.30;;;;;;;15.37;55.92;93914.69;5011005;28;20191;-82
2022/11/22 11:38:52;;;;;;;5.47;4.93;;;;;;;15.36;56.49;93931.91;5009885;28;20207;-83
2022/11/22 11:41:23;;;;;;;5.07;4.67;;;;;;;15.24;56.57;93917.94;5009796;28;20224;-82
2022/11/22 11:43:51;;;;;;;5.67;5.10;;;;;;;15.24;56.49;93926.50;5010605;28;20196;-79
2022/11/22 11:46:20;;;;;;;5.70;4.93;;;;;;;15.19;56.64;93910.78;5012763;28;20192;-80
2022/11/22 11:48:49;;;;;;;6.10;5.20;;;;;;;14.86;56.82;93868.50;5012370;28;20285;-78
2022/11/22 11:51:20;;;;;;;5.63;4.70;;;;;;;14.90;56.84;93874.88;5012927;28;20202;-80
2022/11/22 11:53:54;;;;;;;5.60;5.00;;;;;;;15.05;56.92;93909.06;5012616;28;20203;-81
2022/11/22 11:56:32;;;;;;;5.17;4.67;;;;;;;15.00;57.22;93916.56;5011594;28;20211;-82